sensor_id;sensor_type;location;lat;lon;timestamp;temperature;humidity
22132;DHT22;11232;51.748;19.390;2024-01-15T02:38:15;0.60;99.90
22132;DHT22;11232;51.748;19.390;2024-01-15T02:40:41;0.80;99.90
22132;DHT22;11232;51.748;19.390;2024-01-15T02:43:07;0.60;99.90
22132;DHT22;11232;51.748;19.390;2024-01-15T02:45:32;0.60;99.90
22132;DHT22;11232;51.748;19.390;2024-01-15T02:47:58;0.50;99.90
22132;DHT22;11232;51.748;19.390;2024-01-15T03:00:08;0.60;99.90
22132;DHT22;11232;51.748;19.390;2024-01-15T03:02:37;0.40;99.90
22132;DHT22;11232;51.748;19.390;2024-01-15T03:07:31;0.50;99.90
22132;DHT22;11232;51.748;19.390;2024-01-15T03:09:57;0.50;99.90
22132;DHT22;11232;51.748;19.390;2024-01-15T03:17:14;0.50;99.90
22132;DHT22;11232;51.748;19.390;2024-01-15T03:19:40;0.10;99.90
22132;DHT22;11232;51.748;19.390;2024-01-15T03:41:36;0.50;99.90
22132;DHT22;11232;51.748;19.390;2024-01-15T03:58:38;0.50;99.90
22132;DHT22;11232;51.748;19.390;2024-01-15T04:01:08;0.60;99.90
22132;DHT22;11232;51.748;19.390;2024-01-15T04:13:18;0.40;99.90
22132;DHT22;11232;51.748;19.390;2024-01-15T04:15:43;-0.10;99.90
22132;DHT22;11232;51.748;19.390;2024-01-15T04:18:09;0.50;99.90
22132;DHT22;11232;51.748;19.390;2024-01-15T04:20:35;-0.10;99.90
22132;DHT22;11232;51.748;19.390;2024-01-15T04:25:26;0.40;99.90
22132;DHT22;11232;51.748;19.390;2024-01-15T04:27:52;0.10;99.90
22132;DHT22;11232;51.748;19.390;2024-01-15T04:32:43;0.50;99.90
22132;DHT22;11232;51.748;19.390;2024-01-15T04:35:09;0.10;99.90
22132;DHT22;11232;51.748;19.390;2024-01-15T04:37:34;0.80;99.90
22132;DHT22;11232;51.748;19.390;2024-01-15T04:40:00;0.50;99.90
22132;DHT22;11232;51.748;19.390;2024-01-15T05:48:12;0.60;99.90
22132;DHT22;11232;51.748;19.390;2024-01-15T06:10:06;0.60;99.90
22132;DHT22;11232;51.748;19.390;2024-01-15T06:12:32;0.60;99.90
22132;DHT22;11232;51.748;19.390;2024-01-15T06:14:59;0.90;99.90
22132;DHT22;11232;51.748;19.390;2024-01-15T06:17:24;0.50;99.90
22132;DHT22;11232;51.748;19.390;2024-01-15T06:19:50;0.40;99.90
22132;DHT22;11232;51.748;19.390;2024-01-15T06:22:15;0.30;99.90
22132;DHT22;11232;51.748;19.390;2024-01-15T06:24:41;0.50;99.90
22132;DHT22;11232;51.748;19.390;2024-01-15T06:27:07;-0.10;99.90
22132;DHT22;11232;51.748;19.390;2024-01-15T06:29:32;0.00;99.90
22132;DHT22;11232;51.748;19.390;2024-01-15T06:31:58;0.40;99.90
22132;DHT22;11232;51.748;19.390;2024-01-15T06:34:23;0.10;99.90
22132;DHT22;11232;51.748;19.390;2024-01-15T06:36:49;0.30;99.90
22132;DHT22;11232;51.748;19.390;2024-01-15T06:39:14;0.30;99.90
22132;DHT22;11232;51.748;19.390;2024-01-15T06:41:40;0.20;99.90
22132;DHT22;11232;51.748;19.390;2024-01-15T06:44:12;0.30;99.90
22132;DHT22;11232;51.748;19.390;2024-01-15T06:46:44;-0.10;99.90
22132;DHT22;11232;51.748;19.390;2024-01-15T06:49:11;0.30;99.90
22132;DHT22;11232;51.748;19.390;2024-01-15T06:51:37;0.50;99.90
22132;DHT22;11232;51.748;19.390;2024-01-15T06:54:02;0.50;99.90
22132;DHT22;11232;51.748;19.390;2024-01-15T06:58:54;0.20;99.90
22132;DHT22;11232;51.748;19.390;2024-01-15T07:01:19;0.00;99.90
22132;DHT22;11232;51.748;19.390;2024-01-15T07:03:45;0.50;99.90
22132;DHT22;11232;51.748;19.390;2024-01-15T07:06:12;-0.30;99.90
22132;DHT22;11232;51.748;19.390;2024-01-15T07:25:41;0.30;99.90
22132;DHT22;11232;51.748;19.390;2024-01-15T07:28:07;0.30;99.90
22132;DHT22;11232;51.748;19.390;2024-01-15T07:30:32;0.30;99.90
22132;DHT22;11232;51.748;19.390;2024-01-15T07:32:58;0.30;99.90
22132;DHT22;11232;51.748;19.390;2024-01-15T07:35:24;0.20;99.90
22132;DHT22;11232;51.748;19.390;2024-01-15T07:37:49;0.00;99.90
22132;DHT22;11232;51.748;19.390;2024-01-15T07:40:18;0.00;99.90
22132;DHT22;11232;51.748;19.390;2024-01-15T07:42:43;0.40;99.90
22132;DHT22;11232;51.748;19.390;2024-01-15T07:45:10;0.30;99.90
22132;DHT22;11232;51.748;19.390;2024-01-15T07:47:36;0.30;99.90
22132;DHT22;11232;51.748;19.390;2024-01-15T07:50:02;0.20;99.90
22132;DHT22;11232;51.748;19.390;2024-01-15T07:52:27;0.30;99.90
22132;DHT22;11232;51.748;19.390;2024-01-15T07:54:53;0.30;99.90
22132;DHT22;11232;51.748;19.390;2024-01-15T07:57:18;0.00;99.90
22132;DHT22;11232;51.748;19.390;2024-01-15T07:59:44;0.50;99.90
22132;DHT22;11232;51.748;19.390;2024-01-15T08:02:10;0.60;99.90
22132;DHT22;11232;51.748;19.390;2024-01-15T08:04:37;0.50;99.90
22132;DHT22;11232;51.748;19.390;2024-01-15T08:07:04;0.60;99.90
22132;DHT22;11232;51.748;19.390;2024-01-15T08:09:29;0.50;99.90
22132;DHT22;11232;51.748;19.390;2024-01-15T08:11:55;1.60;99.90
22132;DHT22;11232;51.748;19.390;2024-01-15T08:14:21;1.00;99.90
22132;DHT22;11232;51.748;19.390;2024-01-15T08:16:46;0.70;99.90
22132;DHT22;11232;51.748;19.390;2024-01-15T08:19:12;0.60;99.90
22132;DHT22;11232;51.748;19.390;2024-01-15T08:21:37;1.20;99.90
22132;DHT22;11232;51.748;19.390;2024-01-15T08:24:03;0.80;99.90
22132;DHT22;11232;51.748;19.390;2024-01-15T08:26:29;1.00;99.90
22132;DHT22;11232;51.748;19.390;2024-01-15T08:28:55;0.70;99.90
22132;DHT22;11232;51.748;19.390;2024-01-15T08:31:20;0.60;99.90
22132;DHT22;11232;51.748;19.390;2024-01-15T08:33:46;0.80;99.90
22132;DHT22;11232;51.748;19.390;2024-01-15T08:36:12;0.50;99.90
22132;DHT22;11232;51.748;19.390;2024-01-15T08:38:37;0.80;99.90
22132;DHT22;11232;51.748;19.390;2024-01-15T08:41:03;0.70;99.90
22132;DHT22;11232;51.748;19.390;2024-01-15T08:43:29;0.40;99.90
22132;DHT22;11232;51.748;19.390;2024-01-15T08:45:56;0.50;99.90
22132;DHT22;11232;51.748;19.390;2024-01-15T08:50:48;0.70;99.90
22132;DHT22;11232;51.748;19.390;2024-01-15T08:53:14;0.60;99.90
22132;DHT22;11232;51.748;19.390;2024-01-15T08:55:40;0.90;99.90
22132;DHT22;11232;51.748;19.390;2024-01-15T08:58:07;0.40;99.90
22132;DHT22;11232;51.748;19.390;2024-01-15T09:00:33;0.40;99.90
22132;DHT22;11232;51.748;19.390;2024-01-15T09:20:01;0.90;99.90
22132;DHT22;11232;51.748;19.390;2024-01-15T09:56:39;0.90;99.90
22132;DHT22;11232;51.748;19.390;2024-01-15T09:59:05;1.00;99.90
22132;DHT22;11232;51.748;19.390;2024-01-15T10:01:32;0.90;99.90
22132;DHT22;11232;51.748;19.390;2024-01-15T18:43:26;-0.20;99.90
22132;DHT22;11232;51.748;19.390;2024-01-15T18:45:52;-0.90;99.90
22132;DHT22;11232;51.748;19.390;2024-01-15T18:48:18;-0.70;99.90
22132;DHT22;11232;51.748;19.390;2024-01-15T18:50:44;-0.30;99.90
22132;DHT22;11232;51.748;19.390;2024-01-15T18:53:09;-0.40;99.90
22132;DHT22;11232;51.748;19.390;2024-01-15T18:55:35;-0.70;99.90
22132;DHT22;11232;51.748;19.390;2024-01-15T18:58:00;-0.50;99.90
22132;DHT22;11232;51.748;19.390;2024-01-15T19:10:15;-0.50;99.90
22132;DHT22;11232;51.748;19.390;2024-01-15T19:12:40;-0.40;99.90
22132;DHT22;11232;51.748;19.390;2024-01-15T19:15:06;-0.70;99.90
22132;DHT22;11232;51.748;19.390;2024-01-15T19:17:32;-0.50;99.90
22132;DHT22;11232;51.748;19.390;2024-01-15T19:19:57;-0.40;99.90
22132;DHT22;11232;51.748;19.390;2024-01-15T19:24:49;-0.40;99.90
22132;DHT22;11232;51.748;19.390;2024-01-15T19:27:14;-0.40;99.90
22132;DHT22;11232;51.748;19.390;2024-01-15T19:29:40;-0.80;99.90
22132;DHT22;11232;51.748;19.390;2024-01-15T19:32:06;-0.80;99.90
22132;DHT22;11232;51.748;19.390;2024-01-15T19:34:31;-0.70;99.90
22132;DHT22;11232;51.748;19.390;2024-01-15T19:39:26;-0.50;99.90
22132;DHT22;11232;51.748;19.390;2024-01-15T19:44:18;-0.40;99.90
22132;DHT22;11232;51.748;19.390;2024-01-15T19:46:43;-0.70;99.90
22132;DHT22;11232;51.748;19.390;2024-01-15T19:49:09;-0.50;99.90
22132;DHT22;11232;51.748;19.390;2024-01-15T19:51:35;-0.70;99.90
22132;DHT22;11232;51.748;19.390;2024-01-15T19:54:01;-0.70;99.90
22132;DHT22;11232;51.748;19.390;2024-01-15T19:56:26;-0.50;99.90
22132;DHT22;11232;51.748;19.390;2024-01-15T19:58:52;-0.40;99.90
22132;DHT22;11232;51.748;19.390;2024-01-15T20:03:43;-0.60;99.90
22132;DHT22;11232;51.748;19.390;2024-01-15T20:06:11;-0.60;99.90
22132;DHT22;11232;51.748;19.390;2024-01-15T20:08:42;-0.70;99.90
22132;DHT22;11232;51.748;19.390;2024-01-15T20:11:10;-0.60;99.90
22132;DHT22;11232;51.748;19.390;2024-01-15T20:13:36;-0.90;99.90
22132;DHT22;11232;51.748;19.390;2024-01-15T20:18:33;-0.40;99.90
22132;DHT22;11232;51.748;19.390;2024-01-15T20:20:59;-0.60;99.90
22132;DHT22;11232;51.748;19.390;2024-01-15T20:23:25;-0.60;99.90
22132;DHT22;11232;51.748;19.390;2024-01-15T20:25:51;-0.80;99.90
22132;DHT22;11232;51.748;19.390;2024-01-15T20:30:43;-0.60;99.90
22132;DHT22;11232;51.748;19.390;2024-01-15T20:33:10;-0.70;99.90
22132;DHT22;11232;51.748;19.390;2024-01-15T20:35:35;-0.90;99.90
22132;DHT22;11232;51.748;19.390;2024-01-15T20:38:01;-0.60;99.90
22132;DHT22;11232;51.748;19.390;2024-01-15T20:40:27;-0.50;99.90
22132;DHT22;11232;51.748;19.390;2024-01-15T20:42:52;-0.60;99.90
22132;DHT22;11232;51.748;19.390;2024-01-15T20:45:18;-1.10;99.90
22132;DHT22;11232;51.748;19.390;2024-01-15T20:47:44;-0.80;99.90
22132;DHT22;11232;51.748;19.390;2024-01-15T20:50:09;-1.20;99.90
22132;DHT22;11232;51.748;19.390;2024-01-15T20:52:35;-1.10;99.90
22132;DHT22;11232;51.748;19.390;2024-01-15T20:55:01;-0.70;99.90
22132;DHT22;11232;51.748;19.390;2024-01-15T20:59:52;-1.00;99.90
22132;DHT22;11232;51.748;19.390;2024-01-15T21:02:18;-1.10;99.90
22132;DHT22;11232;51.748;19.390;2024-01-15T21:04:43;-1.30;99.90
22132;DHT22;11232;51.748;19.390;2024-01-15T21:19:22;-1.70;99.90
22132;DHT22;11232;51.748;19.390;2024-01-15T21:21:48;-1.50;99.90
22132;DHT22;11232;51.748;19.390;2024-01-15T21:36:36;-1.90;99.90
22132;DHT22;11232;51.748;19.390;2024-01-15T22:18:02;-1.40;99.90
22132;DHT22;11232;51.748;19.390;2024-01-15T22:20:28;-1.10;99.90
22132;DHT22;11232;51.748;19.390;2024-01-15T22:22:54;-1.50;99.90
22132;DHT22;11232;51.748;19.390;2024-01-15T22:25:20;-1.60;99.90
22132;DHT22;11232;51.748;19.390;2024-01-15T22:27:46;-1.50;99.90
22132;DHT22;11232;51.748;19.390;2024-01-15T22:30:11;-1.30;99.90
22132;DHT22;11232;51.748;19.390;2024-01-15T22:32:37;-1.40;99.90
22132;DHT22;11232;51.748;19.390;2024-01-15T22:35:03;-1.30;99.90
22132;DHT22;11232;51.748;19.390;2024-01-15T22:37:29;-1.40;99.90
22132;DHT22;11232;51.748;19.390;2024-01-15T22:39:54;-1.60;99.90
22132;DHT22;11232;51.748;19.390;2024-01-15T22:42:20;-1.50;99.90
22132;DHT22;11232;51.748;19.390;2024-01-15T22:44:45;-1.30;99.90
22132;DHT22;11232;51.748;19.390;2024-01-15T22:47:11;-1.30;99.90
22132;DHT22;11232;51.748;19.390;2024-01-15T22:49:36;-1.40;99.90
22132;DHT22;11232;51.748;19.390;2024-01-15T22:56:54;-1.30;99.90
22132;DHT22;11232;51.748;19.390;2024-01-15T22:59:20;-1.30;99.90
22132;DHT22;11232;51.748;19.390;2024-01-15T23:01:46;-1.10;99.90
22132;DHT22;11232;51.748;19.390;2024-01-15T23:04:16;-1.10;99.90
22132;DHT22;11232;51.748;19.390;2024-01-15T23:06:42;-1.10;99.90
22132;DHT22;11232;51.748;19.390;2024-01-15T23:09:08;-1.70;99.90
22132;DHT22;11232;51.748;19.390;2024-01-15T23:11:35;-1.10;99.90
22132;DHT22;11232;51.748;19.390;2024-01-15T23:14:00;-1.20;99.90
22132;DHT22;11232;51.748;19.390;2024-01-15T23:16:26;-1.20;99.90
22132;DHT22;11232;51.748;19.390;2024-01-15T23:18:52;-1.60;99.90
22132;DHT22;11232;51.748;19.390;2024-01-15T23:21:17;-1.10;99.90
22132;DHT22;11232;51.748;19.390;2024-01-15T23:23:43;-1.30;99.90
22132;DHT22;11232;51.748;19.390;2024-01-15T23:26:09;-1.20;99.90
22132;DHT22;11232;51.748;19.390;2024-01-15T23:28:34;-1.40;99.90
22132;DHT22;11232;51.748;19.390;2024-01-15T23:31:00;-1.20;99.90
22132;DHT22;11232;51.748;19.390;2024-01-15T23:33:27;-1.10;99.90
22132;DHT22;11232;51.748;19.390;2024-01-15T23:35:52;-1.10;99.90
22132;DHT22;11232;51.748;19.390;2024-01-15T23:38:18;-1.10;99.90
22132;DHT22;11232;51.748;19.390;2024-01-15T23:40:44;-1.10;99.90
22132;DHT22;11232;51.748;19.390;2024-01-15T23:43:09;-1.20;99.90
22132;DHT22;11232;51.748;19.390;2024-01-15T23:45:35;-1.30;99.90
22132;DHT22;11232;51.748;19.390;2024-01-15T23:48:01;-1.20;99.90
22132;DHT22;11232;51.748;19.390;2024-01-15T23:50:28;-1.80;99.90
22132;DHT22;11232;51.748;19.390;2024-01-15T23:52:54;-1.20;99.90
22132;DHT22;11232;51.748;19.390;2024-01-15T23:55:20;-1.30;99.90
22132;DHT22;11232;51.748;19.390;2024-01-15T23:57:46;-1.70;99.90
